sensor_id;sensor_type;location;lat;lon;timestamp;P1;durP1;ratioP1;P2;durP2;ratioP2
16504;SDS011;8365;51.030;4.696;2024-02-21T00:02:24;18.43;;;10.03;;
16504;SDS011;8365;51.030;4.696;2024-02-21T00:04:54;14.80;;;9.07;;
16504;SDS011;8365;51.030;4.696;2024-02-21T00:07:25;17.60;;;10.13;;
16504;SDS011;8365;51.030;4.696;2024-02-21T00:09:55;21.87;;;9.43;;
16504;SDS011;8365;51.030;4.696;2024-02-21T00:12:26;19.27;;;9.63;;
16504;SDS011;8365;51.030;4.696;2024-02-21T00:14:59;17.80;;;10.10;;
16504;SDS011;8365;51.030;4.696;2024-02-21T00:17:29;20.27;;;9.40;;
16504;SDS011;8365;51.030;4.696;2024-02-21T00:20:02;19.67;;;9.50;;
16504;SDS011;8365;51.030;4.696;2024-02-21T00:22:33;17.87;;;9.20;;
16504;SDS011;8365;51.030;4.696;2024-02-21T00:25:03;13.73;;;8.20;;
16504;SDS011;8365;51.030;4.696;2024-02-21T00:27:34;18.17;;;9.27;;
16504;SDS011;8365;51.030;4.696;2024-02-21T00:30:05;17.03;;;9.03;;
16504;SDS011;8365;51.030;4.696;2024-02-21T00:32:36;17.90;;;8.47;;
16504;SDS011;8365;51.030;4.696;2024-02-21T00:35:06;17.77;;;9.27;;
16504;SDS011;8365;51.030;4.696;2024-02-21T00:37:37;17.90;;;9.03;;
16504;SDS011;8365;51.030;4.696;2024-02-21T00:40:08;17.70;;;9.00;;
16504;SDS011;8365;51.030;4.696;2024-02-21T00:42:38;16.93;;;9.00;;
16504;SDS011;8365;51.030;4.696;2024-02-21T00:45:09;14.20;;;8.23;;
16504;SDS011;8365;51.030;4.696;2024-02-21T00:47:40;16.60;;;8.20;;
16504;SDS011;8365;51.030;4.696;2024-02-21T00:50:10;15.27;;;8.83;;
16504;SDS011;8365;51.030;4.696;2024-02-21T00:52:41;18.57;;;8.90;;
16504;SDS011;8365;51.030;4.696;2024-02-21T00:55:11;15.37;;;8.53;;
16504;SDS011;8365;51.030;4.696;2024-02-21T00:57:42;17.63;;;8.03;;
16504;SDS011;8365;51.030;4.696;2024-02-21T01:00:12;15.73;;;9.10;;
16504;SDS011;8365;51.030;4.696;2024-02-21T01:02:43;15.60;;;8.07;;
16504;SDS011;8365;51.030;4.696;2024-02-21T01:05:13;21.03;;;8.77;;
16504;SDS011;8365;51.030;4.696;2024-02-21T01:07:44;18.47;;;7.60;;
16504;SDS011;8365;51.030;4.696;2024-02-21T01:10:14;16.53;;;8.77;;
16504;SDS011;8365;51.030;4.696;2024-02-21T01:12:45;14.80;;;8.80;;
16504;SDS011;8365;51.030;4.696;2024-02-21T01:15:15;13.53;;;7.73;;
16504;SDS011;8365;51.030;4.696;2024-02-21T01:17:46;13.13;;;7.50;;
16504;SDS011;8365;51.030;4.696;2024-02-21T01:20:16;14.73;;;8.13;;
16504;SDS011;8365;51.030;4.696;2024-02-21T01:22:50;18.30;;;7.90;;
16504;SDS011;8365;51.030;4.696;2024-02-21T01:25:20;12.87;;;7.37;;
16504;SDS011;8365;51.030;4.696;2024-02-21T01:27:53;11.97;;;7.17;;
16504;SDS011;8365;51.030;4.696;2024-02-21T01:30:23;11.87;;;7.67;;
16504;SDS011;8365;51.030;4.696;2024-02-21T01:32:54;13.77;;;8.37;;
16504;SDS011;8365;51.030;4.696;2024-02-21T01:35:24;12.57;;;6.93;;
16504;SDS011;8365;51.030;4.696;2024-02-21T01:37:55;11.37;;;7.37;;
16504;SDS011;8365;51.030;4.696;2024-02-21T01:40:25;12.20;;;7.40;;
16504;SDS011;8365;51.030;4.696;2024-02-21T01:42:56;9.83;;;6.73;;
16504;SDS011;8365;51.030;4.696;2024-02-21T01:45:26;13.70;;;7.17;;
16504;SDS011;8365;51.030;4.696;2024-02-21T01:47:57;12.03;;;6.83;;
16504;SDS011;8365;51.030;4.696;2024-02-21T01:50:27;10.63;;;6.57;;
16504;SDS011;8365;51.030;4.696;2024-02-21T01:53:01;12.80;;;6.57;;
16504;SDS011;8365;51.030;4.696;2024-02-21T01:55:32;12.20;;;6.60;;
16504;SDS011;8365;51.030;4.696;2024-02-21T01:58:03;11.87;;;6.57;;
16504;SDS011;8365;51.030;4.696;2024-02-21T02:00:36;12.73;;;5.67;;
16504;SDS011;8365;51.030;4.696;2024-02-21T02:03:11;10.03;;;6.30;;
16504;SDS011;8365;51.030;4.696;2024-02-21T02:05:49;12.20;;;6.70;;
16504;SDS011;8365;51.030;4.696;2024-02-21T02:08:20;14.00;;;7.10;;
16504;SDS011;8365;51.030;4.696;2024-02-21T02:10:54;11.03;;;7.03;;
16504;SDS011;8365;51.030;4.696;2024-02-21T02:13:25;10.00;;;6.90;;
16504;SDS011;8365;51.030;4.696;2024-02-21T02:15:55;15.23;;;8.10;;
16504;SDS011;8365;51.030;4.696;2024-02-21T02:18:26;13.03;;;8.10;;
16504;SDS011;8365;51.030;4.696;2024-02-21T02:20:59;17.80;;;8.60;;
16504;SDS011;8365;51.030;4.696;2024-02-21T02:23:30;17.47;;;9.40;;
16504;SDS011;8365;51.030;4.696;2024-02-21T02:26:04;17.20;;;9.37;;
16504;SDS011;8365;51.030;4.696;2024-02-21T02:28:37;14.07;;;9.20;;
16504;SDS011;8365;51.030;4.696;2024-02-21T02:31:07;19.23;;;10.00;;
16504;SDS011;8365;51.030;4.696;2024-02-21T02:33:38;14.90;;;9.40;;
16504;SDS011;8365;51.030;4.696;2024-02-21T02:36:08;17.80;;;10.10;;
16504;SDS011;8365;51.030;4.696;2024-02-21T02:38:39;19.43;;;10.63;;
16504;SDS011;8365;51.030;4.696;2024-02-21T02:41:09;17.97;;;10.20;;
16504;SDS011;8365;51.030;4.696;2024-02-21T02:43:40;14.77;;;9.23;;
16504;SDS011;8365;51.030;4.696;2024-02-21T02:46:10;18.50;;;9.50;;
16504;SDS011;8365;51.030;4.696;2024-02-21T02:48:41;19.17;;;9.87;;
16504;SDS011;8365;51.030;4.696;2024-02-21T02:51:13;16.40;;;9.67;;
16504;SDS011;8365;51.030;4.696;2024-02-21T02:53:44;18.90;;;10.27;;
16504;SDS011;8365;51.030;4.696;2024-02-21T02:56:15;20.07;;;10.17;;
16504;SDS011;8365;51.030;4.696;2024-02-21T02:58:45;19.20;;;10.23;;
16504;SDS011;8365;51.030;4.696;2024-02-21T03:01:16;20.67;;;10.37;;
16504;SDS011;8365;51.030;4.696;2024-02-21T03:03:46;15.67;;;9.70;;
16504;SDS011;8365;51.030;4.696;2024-02-21T03:06:17;22.47;;;10.03;;
16504;SDS011;8365;51.030;4.696;2024-02-21T03:08:47;17.27;;;9.67;;
16504;SDS011;8365;51.030;4.696;2024-02-21T03:11:18;15.47;;;9.30;;
16504;SDS011;8365;51.030;4.696;2024-02-21T03:13:49;15.97;;;10.03;;
16504;SDS011;8365;51.030;4.696;2024-02-21T03:16:20;19.53;;;9.57;;
16504;SDS011;8365;51.030;4.696;2024-02-21T03:18:51;19.10;;;9.50;;
16504;SDS011;8365;51.030;4.696;2024-02-21T03:21:22;16.13;;;9.77;;
16504;SDS011;8365;51.030;4.696;2024-02-21T03:23:52;15.27;;;10.43;;
16504;SDS011;8365;51.030;4.696;2024-02-21T03:26:23;24.17;;;9.70;;
16504;SDS011;8365;51.030;4.696;2024-02-21T03:28:53;20.10;;;10.00;;
16504;SDS011;8365;51.030;4.696;2024-02-21T03:31:26;14.13;;;10.20;;
16504;SDS011;8365;51.030;4.696;2024-02-21T03:33:56;14.87;;;9.63;;
16504;SDS011;8365;51.030;4.696;2024-02-21T03:36:27;17.13;;;9.80;;
16504;SDS011;8365;51.030;4.696;2024-02-21T03:38:57;18.87;;;10.83;;
16504;SDS011;8365;51.030;4.696;2024-02-21T03:41:28;13.53;;;9.43;;
16504;SDS011;8365;51.030;4.696;2024-02-21T03:43:59;16.70;;;9.77;;
16504;SDS011;8365;51.030;4.696;2024-02-21T03:46:31;15.73;;;10.47;;
16504;SDS011;8365;51.030;4.696;2024-02-21T03:49:02;14.73;;;8.53;;
16504;SDS011;8365;51.030;4.696;2024-02-21T03:51:32;21.07;;;10.07;;
16504;SDS011;8365;51.030;4.696;2024-02-21T03:54:03;17.67;;;9.00;;
16504;SDS011;8365;51.030;4.696;2024-02-21T03:56:36;14.87;;;9.73;;
16504;SDS011;8365;51.030;4.696;2024-02-21T03:59:09;12.20;;;8.17;;
16504;SDS011;8365;51.030;4.696;2024-02-21T04:01:40;15.83;;;9.20;;
16504;SDS011;8365;51.030;4.696;2024-02-21T04:04:10;15.40;;;9.63;;
16504;SDS011;8365;51.030;4.696;2024-02-21T04:06:50;18.67;;;10.00;;
16504;SDS011;8365;51.030;4.696;2024-02-21T04:09:24;17.23;;;8.83;;
16504;SDS011;8365;51.030;4.696;2024-02-21T04:11:54;15.03;;;9.93;;
16504;SDS011;8365;51.030;4.696;2024-02-21T04:14:25;16.70;;;9.23;;
16504;SDS011;8365;51.030;4.696;2024-02-21T04:16:58;15.60;;;8.90;;
16504;SDS011;8365;51.030;4.696;2024-02-21T04:19:28;14.53;;;8.47;;
16504;SDS011;8365;51.030;4.696;2024-02-21T04:21:59;13.53;;;9.40;;
16504;SDS011;8365;51.030;4.696;2024-02-21T04:24:29;15.67;;;9.53;;
16504;SDS011;8365;51.030;4.696;2024-02-21T04:26:59;18.40;;;10.77;;
16504;SDS011;8365;51.030;4.696;2024-02-21T04:29:30;17.00;;;10.40;;
16504;SDS011;8365;51.030;4.696;2024-02-21T04:32:03;19.13;;;10.60;;
16504;SDS011;8365;51.030;4.696;2024-02-21T04:34:34;16.60;;;10.17;;
16504;SDS011;8365;51.030;4.696;2024-02-21T04:37:05;14.73;;;9.10;;
16504;SDS011;8365;51.030;4.696;2024-02-21T04:39:35;14.40;;;10.03;;
16504;SDS011;8365;51.030;4.696;2024-02-21T04:42:06;16.23;;;10.27;;
16504;SDS011;8365;51.030;4.696;2024-02-21T04:44:37;18.20;;;11.03;;
16504;SDS011;8365;51.030;4.696;2024-02-21T04:47:08;14.43;;;10.17;;
16504;SDS011;8365;51.030;4.696;2024-02-21T04:49:38;16.60;;;10.17;;
16504;SDS011;8365;51.030;4.696;2024-02-21T04:52:09;17.90;;;10.13;;
16504;SDS011;8365;51.030;4.696;2024-02-21T04:54:39;15.30;;;10.33;;
16504;SDS011;8365;51.030;4.696;2024-02-21T04:57:10;17.73;;;10.90;;
16504;SDS011;8365;51.030;4.696;2024-02-21T04:59:40;19.00;;;10.57;;
16504;SDS011;8365;51.030;4.696;2024-02-21T05:02:11;15.83;;;10.20;;
16504;SDS011;8365;51.030;4.696;2024-02-21T05:04:42;20.97;;;11.20;;
16504;SDS011;8365;51.030;4.696;2024-02-21T05:07:13;17.17;;;10.10;;
16504;SDS011;8365;51.030;4.696;2024-02-21T05:09:43;14.37;;;10.30;;
16504;SDS011;8365;51.030;4.696;2024-02-21T05:12:14;19.07;;;10.57;;
16504;SDS011;8365;51.030;4.696;2024-02-21T05:14:44;15.43;;;10.67;;
16504;SDS011;8365;51.030;4.696;2024-02-21T05:17:15;18.43;;;10.77;;
16504;SDS011;8365;51.030;4.696;2024-02-21T05:19:45;18.10;;;10.77;;
16504;SDS011;8365;51.030;4.696;2024-02-21T05:22:16;17.00;;;11.10;;
16504;SDS011;8365;51.030;4.696;2024-02-21T05:24:46;16.00;;;10.77;;
16504;SDS011;8365;51.030;4.696;2024-02-21T05:27:17;18.23;;;10.90;;
16504;SDS011;8365;51.030;4.696;2024-02-21T05:29:47;17.30;;;10.40;;
16504;SDS011;8365;51.030;4.696;2024-02-21T05:32:20;18.30;;;10.37;;
16504;SDS011;8365;51.030;4.696;2024-02-21T05:34:50;17.37;;;10.57;;
16504;SDS011;8365;51.030;4.696;2024-02-21T05:37:21;17.87;;;10.40;;
16504;SDS011;8365;51.030;4.696;2024-02-21T05:39:51;17.23;;;10.87;;
16504;SDS011;8365;51.030;4.696;2024-02-21T05:42:22;18.07;;;10.77;;
16504;SDS011;8365;51.030;4.696;2024-02-21T05:44:55;15.63;;;10.50;;
16504;SDS011;8365;51.030;4.696;2024-02-21T05:47:25;17.83;;;10.80;;
16504;SDS011;8365;51.030;4.696;2024-02-21T05:50:00;14.03;;;10.27;;
16504;SDS011;8365;51.030;4.696;2024-02-21T05:52:31;18.37;;;10.27;;
16504;SDS011;8365;51.030;4.696;2024-02-21T05:55:01;15.50;;;10.47;;
16504;SDS011;8365;51.030;4.696;2024-02-21T05:57:33;15.57;;;10.43;;
16504;SDS011;8365;51.030;4.696;2024-02-21T06:00:04;16.40;;;10.07;;
16504;SDS011;8365;51.030;4.696;2024-02-21T06:02:36;15.77;;;10.67;;
16504;SDS011;8365;51.030;4.696;2024-02-21T06:05:06;15.23;;;9.97;;
16504;SDS011;8365;51.030;4.696;2024-02-21T06:07:38;19.30;;;10.43;;
16504;SDS011;8365;51.030;4.696;2024-02-21T06:10:09;14.37;;;9.50;;
16504;SDS011;8365;51.030;4.696;2024-02-21T06:12:39;15.87;;;9.70;;
16504;SDS011;8365;51.030;4.696;2024-02-21T06:15:10;14.80;;;9.90;;
16504;SDS011;8365;51.030;4.696;2024-02-21T06:17:40;14.77;;;9.83;;
16504;SDS011;8365;51.030;4.696;2024-02-21T06:20:13;16.17;;;10.07;;
16504;SDS011;8365;51.030;4.696;2024-02-21T06:22:46;14.67;;;9.23;;
16504;SDS011;8365;51.030;4.696;2024-02-21T06:25:17;15.23;;;9.40;;
16504;SDS011;8365;51.030;4.696;2024-02-21T06:27:47;14.03;;;8.57;;
16504;SDS011;8365;51.030;4.696;2024-02-21T06:30:18;12.87;;;8.60;;
16504;SDS011;8365;51.030;4.696;2024-02-21T06:32:50;14.63;;;8.53;;
16504;SDS011;8365;51.030;4.696;2024-02-21T06:35:25;14.80;;;8.00;;
16504;SDS011;8365;51.030;4.696;2024-02-21T06:37:56;15.73;;;7.87;;
16504;SDS011;8365;51.030;4.696;2024-02-21T06:40:29;14.60;;;8.60;;
16504;SDS011;8365;51.030;4.696;2024-02-21T06:43:01;14.97;;;8.97;;
16504;SDS011;8365;51.030;4.696;2024-02-21T06:45:32;15.67;;;9.20;;
16504;SDS011;8365;51.030;4.696;2024-02-21T06:48:02;12.00;;;8.23;;
16504;SDS011;8365;51.030;4.696;2024-02-21T06:50:33;12.60;;;7.37;;
16504;SDS011;8365;51.030;4.696;2024-02-21T06:53:04;11.93;;;8.07;;
16504;SDS011;8365;51.030;4.696;2024-02-21T06:55:35;12.70;;;7.90;;
16504;SDS011;8365;51.030;4.696;2024-02-21T06:58:05;9.00;;;6.97;;
16504;SDS011;8365;51.030;4.696;2024-02-21T07:00:39;8.93;;;7.03;;
16504;SDS011;8365;51.030;4.696;2024-02-21T07:03:10;9.13;;;7.00;;
16504;SDS011;8365;51.030;4.696;2024-02-21T07:05:40;11.33;;;6.80;;
16504;SDS011;8365;51.030;4.696;2024-02-21T07:08:11;11.03;;;6.23;;
16504;SDS011;8365;51.030;4.696;2024-02-21T07:10:41;9.60;;;7.07;;
16504;SDS011;8365;51.030;4.696;2024-02-21T07:13:12;8.50;;;6.27;;
16504;SDS011;8365;51.030;4.696;2024-02-21T07:15:45;7.73;;;6.60;;
16504;SDS011;8365;51.030;4.696;2024-02-21T07:18:16;9.10;;;7.07;;
16504;SDS011;8365;51.030;4.696;2024-02-21T07:20:46;8.17;;;6.07;;
16504;SDS011;8365;51.030;4.696;2024-02-21T07:23:17;9.37;;;6.47;;
16504;SDS011;8365;51.030;4.696;2024-02-21T07:25:48;8.90;;;7.03;;
16504;SDS011;8365;51.030;4.696;2024-02-21T07:28:18;10.40;;;6.80;;
16504;SDS011;8365;51.030;4.696;2024-02-21T07:30:51;8.23;;;7.10;;
16504;SDS011;8365;51.030;4.696;2024-02-21T07:33:22;9.10;;;7.50;;
16504;SDS011;8365;51.030;4.696;2024-02-21T07:35:52;9.40;;;7.83;;
16504;SDS011;8365;51.030;4.696;2024-02-21T07:38:22;9.50;;;7.10;;
16504;SDS011;8365;51.030;4.696;2024-02-21T07:40:53;9.17;;;7.10;;
16504;SDS011;8365;51.030;4.696;2024-02-21T07:43:23;11.40;;;8.27;;
16504;SDS011;8365;51.030;4.696;2024-02-21T07:45:56;8.60;;;7.50;;
16504;SDS011;8365;51.030;4.696;2024-02-21T07:48:26;13.30;;;8.77;;
16504;SDS011;8365;51.030;4.696;2024-02-21T07:50:59;12.43;;;9.03;;
16504;SDS011;8365;51.030;4.696;2024-02-21T07:53:30;14.73;;;9.53;;
16504;SDS011;8365;51.030;4.696;2024-02-21T07:56:00;17.23;;;10.03;;
16504;SDS011;8365;51.030;4.696;2024-02-21T07:58:33;13.70;;;10.17;;
16504;SDS011;8365;51.030;4.696;2024-02-21T08:01:04;17.70;;;10.77;;
16504;SDS011;8365;51.030;4.696;2024-02-21T08:03:34;18.20;;;11.60;;
16504;SDS011;8365;51.030;4.696;2024-02-21T08:06:05;14.70;;;10.50;;
16504;SDS011;8365;51.030;4.696;2024-02-21T08:08:35;13.87;;;10.93;;
16504;SDS011;8365;51.030;4.696;2024-02-21T08:11:06;14.03;;;10.50;;
16504;SDS011;8365;51.030;4.696;2024-02-21T08:13:36;14.43;;;11.30;;
16504;SDS011;8365;51.030;4.696;2024-02-21T08:16:07;14.43;;;11.20;;
16504;SDS011;8365;51.030;4.696;2024-02-21T08:18:37;14.17;;;10.33;;
16504;SDS011;8365;51.030;4.696;2024-02-21T08:21:08;14.30;;;10.53;;
16504;SDS011;8365;51.030;4.696;2024-02-21T08:23:42;14.20;;;11.40;;
16504;SDS011;8365;51.030;4.696;2024-02-21T08:26:12;14.60;;;10.90;;
16504;SDS011;8365;51.030;4.696;2024-02-21T08:28:43;13.77;;;10.90;;
16504;SDS011;8365;51.030;4.696;2024-02-21T08:31:22;15.57;;;10.27;;
16504;SDS011;8365;51.030;4.696;2024-02-21T08:33:54;12.87;;;9.80;;
16504;SDS011;8365;51.030;4.696;2024-02-21T08:36:26;15.13;;;9.97;;
16504;SDS011;8365;51.030;4.696;2024-02-21T08:38:56;16.43;;;10.80;;
16504;SDS011;8365;51.030;4.696;2024-02-21T08:41:27;15.70;;;10.10;;
16504;SDS011;8365;51.030;4.696;2024-02-21T08:43:57;12.20;;;9.80;;
16504;SDS011;8365;51.030;4.696;2024-02-21T08:46:28;13.10;;;10.07;;
16504;SDS011;8365;51.030;4.696;2024-02-21T08:48:58;12.73;;;9.57;;
16504;SDS011;8365;51.030;4.696;2024-02-21T08:51:29;11.97;;;10.00;;
16504;SDS011;8365;51.030;4.696;2024-02-21T08:53:59;13.50;;;9.83;;
16504;SDS011;8365;51.030;4.696;2024-02-21T08:56:31;12.93;;;9.03;;
16504;SDS011;8365;51.030;4.696;2024-02-21T08:59:01;14.10;;;10.40;;
16504;SDS011;8365;51.030;4.696;2024-02-21T09:01:32;14.40;;;9.73;;
16504;SDS011;8365;51.030;4.696;2024-02-21T09:04:04;12.37;;;8.83;;
16504;SDS011;8365;51.030;4.696;2024-02-21T09:06:35;14.10;;;8.77;;
16504;SDS011;8365;51.030;4.696;2024-02-21T09:09:09;12.40;;;8.77;;
16504;SDS011;8365;51.030;4.696;2024-02-21T09:11:39;15.57;;;9.17;;
16504;SDS011;8365;51.030;4.696;2024-02-21T09:14:10;11.13;;;7.87;;
16504;SDS011;8365;51.030;4.696;2024-02-21T09:16:42;10.83;;;8.43;;
16504;SDS011;8365;51.030;4.696;2024-02-21T09:19:12;13.40;;;8.87;;
16504;SDS011;8365;51.030;4.696;2024-02-21T09:21:43;11.03;;;7.60;;
16504;SDS011;8365;51.030;4.696;2024-02-21T09:24:13;11.73;;;7.93;;
16504;SDS011;8365;51.030;4.696;2024-02-21T09:26:43;9.90;;;7.60;;
16504;SDS011;8365;51.030;4.696;2024-02-21T09:29:14;7.87;;;6.73;;
16504;SDS011;8365;51.030;4.696;2024-02-21T09:31:46;11.43;;;6.63;;
16504;SDS011;8365;51.030;4.696;2024-02-21T09:34:17;11.37;;;7.27;;
16504;SDS011;8365;51.030;4.696;2024-02-21T09:36:48;11.37;;;6.90;;
16504;SDS011;8365;51.030;4.696;2024-02-21T09:39:18;8.93;;;6.60;;
16504;SDS011;8365;51.030;4.696;2024-02-21T09:41:58;8.50;;;6.30;;
16504;SDS011;8365;51.030;4.696;2024-02-21T09:44:36;12.27;;;6.50;;
16504;SDS011;8365;51.030;4.696;2024-02-21T09:47:10;10.47;;;6.30;;
16504;SDS011;8365;51.030;4.696;2024-02-21T09:50:04;11.17;;;6.27;;
16504;SDS011;8365;51.030;4.696;2024-02-21T09:52:34;9.37;;;6.40;;
16504;SDS011;8365;51.030;4.696;2024-02-21T09:55:08;8.27;;;6.03;;
16504;SDS011;8365;51.030;4.696;2024-02-21T09:57:43;6.80;;;5.60;;
16504;SDS011;8365;51.030;4.696;2024-02-21T10:00:14;7.80;;;6.37;;
16504;SDS011;8365;51.030;4.696;2024-02-21T10:02:51;9.80;;;6.10;;
16504;SDS011;8365;51.030;4.696;2024-02-21T10:05:21;11.37;;;6.07;;
16504;SDS011;8365;51.030;4.696;2024-02-21T10:07:55;9.67;;;6.40;;
16504;SDS011;8365;51.030;4.696;2024-02-21T10:10:26;8.00;;;6.07;;
16504;SDS011;8365;51.030;4.696;2024-02-21T10:12:57;10.60;;;5.83;;
16504;SDS011;8365;51.030;4.696;2024-02-21T10:15:28;9.27;;;6.07;;
16504;SDS011;8365;51.030;4.696;2024-02-21T10:17:59;8.23;;;5.90;;
16504;SDS011;8365;51.030;4.696;2024-02-21T10:20:34;8.97;;;6.20;;
16504;SDS011;8365;51.030;4.696;2024-02-21T10:23:05;9.03;;;6.07;;
16504;SDS011;8365;51.030;4.696;2024-02-21T10:25:39;10.27;;;5.63;;
16504;SDS011;8365;51.030;4.696;2024-02-21T10:28:15;7.43;;;5.57;;
16504;SDS011;8365;51.030;4.696;2024-02-21T10:30:50;7.77;;;5.43;;
16504;SDS011;8365;51.030;4.696;2024-02-21T10:33:22;7.20;;;5.30;;
16504;SDS011;8365;51.030;4.696;2024-02-21T10:35:54;8.70;;;5.37;;
16504;SDS011;8365;51.030;4.696;2024-02-21T10:38:24;7.67;;;5.83;;
16504;SDS011;8365;51.030;4.696;2024-02-21T10:40:55;8.40;;;5.73;;
16504;SDS011;8365;51.030;4.696;2024-02-21T10:43:28;7.40;;;5.53;;
16504;SDS011;8365;51.030;4.696;2024-02-21T10:46:07;11.03;;;6.10;;
16504;SDS011;8365;51.030;4.696;2024-02-21T10:48:42;7.90;;;5.07;;
16504;SDS011;8365;51.030;4.696;2024-02-21T10:56:28;7.93;;;5.27;;
16504;SDS011;8365;51.030;4.696;2024-02-21T10:59:07;11.17;;;5.57;;
16504;SDS011;8365;51.030;4.696;2024-02-21T11:01:38;12.57;;;5.83;;
16504;SDS011;8365;51.030;4.696;2024-02-21T11:04:09;10.03;;;5.60;;
16504;SDS011;8365;51.030;4.696;2024-02-21T11:06:41;8.53;;;5.57;;
16504;SDS011;8365;51.030;4.696;2024-02-21T11:09:13;7.07;;;5.23;;
16504;SDS011;8365;51.030;4.696;2024-02-21T11:11:44;6.90;;;5.17;;
16504;SDS011;8365;51.030;4.696;2024-02-21T11:14:17;10.57;;;5.43;;
16504;SDS011;8365;51.030;4.696;2024-02-21T11:16:49;8.63;;;5.50;;
16504;SDS011;8365;51.030;4.696;2024-02-21T11:21:50;11.63;;;5.63;;
16504;SDS011;8365;51.030;4.696;2024-02-21T11:24:34;7.00;;;4.70;;
16504;SDS011;8365;51.030;4.696;2024-02-21T11:27:08;9.67;;;4.67;;
16504;SDS011;8365;51.030;4.696;2024-02-21T11:29:45;9.17;;;4.50;;
16504;SDS011;8365;51.030;4.696;2024-02-21T11:32:17;7.77;;;4.80;;
16504;SDS011;8365;51.030;4.696;2024-02-21T11:34:54;6.37;;;4.40;;
16504;SDS011;8365;51.030;4.696;2024-02-21T11:37:32;8.17;;;4.27;;
16504;SDS011;8365;51.030;4.696;2024-02-21T11:40:04;8.30;;;4.40;;
16504;SDS011;8365;51.030;4.696;2024-02-21T11:42:37;7.23;;;4.60;;
16504;SDS011;8365;51.030;4.696;2024-02-21T11:45:07;7.57;;;4.73;;
16504;SDS011;8365;51.030;4.696;2024-02-21T11:47:42;5.23;;;4.03;;
16504;SDS011;8365;51.030;4.696;2024-02-21T11:50:13;8.93;;;4.27;;
16504;SDS011;8365;51.030;4.696;2024-02-21T11:52:43;8.60;;;4.47;;
16504;SDS011;8365;51.030;4.696;2024-02-21T11:55:16;6.70;;;4.07;;
16504;SDS011;8365;51.030;4.696;2024-02-21T11:57:50;6.23;;;4.10;;
16504;SDS011;8365;51.030;4.696;2024-02-21T12:00:20;5.90;;;3.93;;
16504;SDS011;8365;51.030;4.696;2024-02-21T12:02:51;8.87;;;4.07;;
16504;SDS011;8365;51.030;4.696;2024-02-21T12:05:22;6.47;;;3.57;;
16504;SDS011;8365;51.030;4.696;2024-02-21T12:07:52;4.90;;;3.70;;
16504;SDS011;8365;51.030;4.696;2024-02-21T12:10:23;5.67;;;3.47;;
16504;SDS011;8365;51.030;4.696;2024-02-21T12:13:08;7.00;;;3.30;;
16504;SDS011;8365;51.030;4.696;2024-02-21T12:15:39;5.73;;;3.60;;
16504;SDS011;8365;51.030;4.696;2024-02-21T12:18:10;5.83;;;3.57;;
16504;SDS011;8365;51.030;4.696;2024-02-21T12:20:41;5.00;;;3.57;;
16504;SDS011;8365;51.030;4.696;2024-02-21T12:23:12;6.57;;;3.40;;
16504;SDS011;8365;51.030;4.696;2024-02-21T12:25:43;4.83;;;3.57;;
16504;SDS011;8365;51.030;4.696;2024-02-21T12:28:16;5.90;;;3.50;;
16504;SDS011;8365;51.030;4.696;2024-02-21T12:30:47;7.80;;;3.60;;
16504;SDS011;8365;51.030;4.696;2024-02-21T12:33:18;8.50;;;3.97;;
16504;SDS011;8365;51.030;4.696;2024-02-21T12:35:48;5.27;;;3.40;;
16504;SDS011;8365;51.030;4.696;2024-02-21T12:38:19;4.00;;;3.60;;
16504;SDS011;8365;51.030;4.696;2024-02-21T12:40:50;7.07;;;3.70;;
16504;SDS011;8365;51.030;4.696;2024-02-21T12:43:21;5.60;;;3.90;;
16504;SDS011;8365;51.030;4.696;2024-02-21T12:45:52;5.93;;;3.90;;
16504;SDS011;8365;51.030;4.696;2024-02-21T12:48:25;6.00;;;4.20;;
16504;SDS011;8365;51.030;4.696;2024-02-21T12:50:55;6.00;;;4.17;;
16504;SDS011;8365;51.030;4.696;2024-02-21T12:53:26;7.37;;;4.40;;
16504;SDS011;8365;51.030;4.696;2024-02-21T12:55:56;5.60;;;3.90;;
16504;SDS011;8365;51.030;4.696;2024-02-21T12:58:27;6.50;;;3.97;;
16504;SDS011;8365;51.030;4.696;2024-02-21T13:00:58;7.30;;;4.00;;
16504;SDS011;8365;51.030;4.696;2024-02-21T13:03:29;5.93;;;3.93;;
16504;SDS011;8365;51.030;4.696;2024-02-21T13:06:00;6.33;;;4.17;;
16504;SDS011;8365;51.030;4.696;2024-02-21T13:08:31;6.70;;;3.83;;
16504;SDS011;8365;51.030;4.696;2024-02-21T13:11:01;8.33;;;4.33;;
16504;SDS011;8365;51.030;4.696;2024-02-21T13:13:32;4.33;;;3.70;;
16504;SDS011;8365;51.030;4.696;2024-02-21T13:16:04;7.63;;;4.43;;
16504;SDS011;8365;51.030;4.696;2024-02-21T13:18:35;6.23;;;4.10;;
16504;SDS011;8365;51.030;4.696;2024-02-21T13:21:08;6.20;;;4.33;;
16504;SDS011;8365;51.030;4.696;2024-02-21T13:23:39;7.67;;;4.20;;
16504;SDS011;8365;51.030;4.696;2024-02-21T13:26:10;4.77;;;4.27;;
16504;SDS011;8365;51.030;4.696;2024-02-21T13:28:41;6.40;;;4.23;;
16504;SDS011;8365;51.030;4.696;2024-02-21T13:31:12;6.60;;;4.23;;
16504;SDS011;8365;51.030;4.696;2024-02-21T13:33:42;5.90;;;4.40;;
16504;SDS011;8365;51.030;4.696;2024-02-21T13:36:14;7.30;;;4.70;;
16504;SDS011;8365;51.030;4.696;2024-02-21T13:38:48;5.47;;;4.27;;
16504;SDS011;8365;51.030;4.696;2024-02-21T13:41:18;7.03;;;4.37;;
16504;SDS011;8365;51.030;4.696;2024-02-21T13:43:49;6.20;;;4.47;;
16504;SDS011;8365;51.030;4.696;2024-02-21T13:46:20;7.17;;;4.67;;
16504;SDS011;8365;51.030;4.696;2024-02-21T13:48:51;4.97;;;4.10;;
16504;SDS011;8365;51.030;4.696;2024-02-21T13:51:32;9.10;;;4.67;;
16504;SDS011;8365;51.030;4.696;2024-02-21T13:54:06;5.43;;;4.80;;
16504;SDS011;8365;51.030;4.696;2024-02-21T13:56:39;8.73;;;4.80;;
16504;SDS011;8365;51.030;4.696;2024-02-21T13:59:09;6.77;;;4.53;;
16504;SDS011;8365;51.030;4.696;2024-02-21T14:01:40;7.23;;;4.50;;
16504;SDS011;8365;51.030;4.696;2024-02-21T14:04:10;7.83;;;4.53;;
16504;SDS011;8365;51.030;4.696;2024-02-21T14:06:41;7.17;;;4.77;;
16504;SDS011;8365;51.030;4.696;2024-02-21T14:09:14;6.57;;;4.80;;
16504;SDS011;8365;51.030;4.696;2024-02-21T14:11:47;7.67;;;4.73;;
16504;SDS011;8365;51.030;4.696;2024-02-21T14:14:17;5.00;;;4.50;;
16504;SDS011;8365;51.030;4.696;2024-02-21T14:16:48;8.53;;;5.00;;
16504;SDS011;8365;51.030;4.696;2024-02-21T14:19:18;5.63;;;4.97;;
16504;SDS011;8365;51.030;4.696;2024-02-21T14:21:49;7.47;;;5.17;;
16504;SDS011;8365;51.030;4.696;2024-02-21T14:24:23;7.90;;;5.70;;
16504;SDS011;8365;51.030;4.696;2024-02-21T14:26:54;9.63;;;5.53;;
16504;SDS011;8365;51.030;4.696;2024-02-21T14:29:25;8.03;;;5.60;;
16504;SDS011;8365;51.030;4.696;2024-02-21T14:32:00;7.97;;;5.23;;
16504;SDS011;8365;51.030;4.696;2024-02-21T14:34:30;9.03;;;5.87;;
16504;SDS011;8365;51.030;4.696;2024-02-21T14:37:03;9.87;;;5.93;;
16504;SDS011;8365;51.030;4.696;2024-02-21T14:39:34;9.37;;;6.03;;
16504;SDS011;8365;51.030;4.696;2024-02-21T14:42:05;8.10;;;6.13;;
16504;SDS011;8365;51.030;4.696;2024-02-21T14:44:36;13.73;;;9.23;;
16504;SDS011;8365;51.030;4.696;2024-02-21T14:47:07;10.37;;;6.70;;
16504;SDS011;8365;51.030;4.696;2024-02-21T14:49:37;7.00;;;6.30;;
16504;SDS011;8365;51.030;4.696;2024-02-21T14:52:08;10.53;;;6.57;;
16504;SDS011;8365;51.030;4.696;2024-02-21T14:54:39;10.97;;;7.03;;
16504;SDS011;8365;51.030;4.696;2024-02-21T14:57:14;11.23;;;8.03;;
16504;SDS011;8365;51.030;4.696;2024-02-21T14:59:45;12.77;;;9.13;;
16504;SDS011;8365;51.030;4.696;2024-02-21T15:02:15;12.07;;;7.63;;
16504;SDS011;8365;51.030;4.696;2024-02-21T15:04:46;11.13;;;7.37;;
16504;SDS011;8365;51.030;4.696;2024-02-21T15:07:17;8.77;;;7.57;;
16504;SDS011;8365;51.030;4.696;2024-02-21T15:09:53;11.10;;;6.50;;
16504;SDS011;8365;51.030;4.696;2024-02-21T15:12:24;8.70;;;7.17;;
16504;SDS011;8365;51.030;4.696;2024-02-21T15:14:54;9.20;;;7.23;;
16504;SDS011;8365;51.030;4.696;2024-02-21T15:17:25;10.37;;;6.93;;
16504;SDS011;8365;51.030;4.696;2024-02-21T15:19:55;8.13;;;6.40;;
16504;SDS011;8365;51.030;4.696;2024-02-21T15:22:29;10.43;;;6.90;;
16504;SDS011;8365;51.030;4.696;2024-02-21T15:25:02;12.30;;;7.23;;